sensor_id;sensor_type;location;lat;lon;timestamp;temperature;humidity
6496;DHT22;3281;47.658;9.166;2022-12-07T00:01:24;4.50;1.00
6496;DHT22;3281;47.658;9.166;2022-12-07T00:03:52;4.60;1.00
6496;DHT22;3281;47.658;9.166;2022-12-07T00:06:20;4.50;1.00
6496;DHT22;3281;47.658;9.166;2022-12-07T00:08:48;4.60;1.00
6496;DHT22;3281;47.658;9.166;2022-12-07T00:11:17;4.50;1.00
6496;DHT22;3281;47.658;9.166;2022-12-07T00:13:44;4.40;1.00
6496;DHT22;3281;47.658;9.166;2022-12-07T00:16:13;4.40;1.00
6496;DHT22;3281;47.658;9.166;2022-12-07T00:18:40;4.50;1.00
6496;DHT22;3281;47.658;9.166;2022-12-07T00:21:10;4.50;1.00
6496;DHT22;3281;47.658;9.166;2022-12-07T00:23:38;4.50;1.00
6496;DHT22;3281;47.658;9.166;2022-12-07T00:26:08;4.60;1.00
6496;DHT22;3281;47.658;9.166;2022-12-07T00:28:35;4.70;1.00
6496;DHT22;3281;47.658;9.166;2022-12-07T00:31:03;4.80;1.00
6496;DHT22;3281;47.658;9.166;2022-12-07T00:33:31;4.80;1.00
6496;DHT22;3281;47.658;9.166;2022-12-07T00:35:58;4.70;1.00
6496;DHT22;3281;47.658;9.166;2022-12-07T00:38:27;4.70;1.00
6496;DHT22;3281;47.658;9.166;2022-12-07T00:40:56;4.60;1.00
6496;DHT22;3281;47.658;9.166;2022-12-07T00:43:24;4.60;1.00
6496;DHT22;3281;47.658;9.166;2022-12-07T00:45:51;4.60;1.00
6496;DHT22;3281;47.658;9.166;2022-12-07T00:48:18;4.60;1.00
6496;DHT22;3281;47.658;9.166;2022-12-07T00:50:45;4.60;1.00
6496;DHT22;3281;47.658;9.166;2022-12-07T00:53:12;4.60;1.00
6496;DHT22;3281;47.658;9.166;2022-12-07T00:55:39;4.60;1.00
6496;DHT22;3281;47.658;9.166;2022-12-07T00:58:06;4.70;1.00
6496;DHT22;3281;47.658;9.166;2022-12-07T01:00:35;4.60;1.00
6496;DHT22;3281;47.658;9.166;2022-12-07T01:03:02;4.70;1.00
6496;DHT22;3281;47.658;9.166;2022-12-07T01:05:29;4.80;1.00
6496;DHT22;3281;47.658;9.166;2022-12-07T01:07:56;4.70;1.00
6496;DHT22;3281;47.658;9.166;2022-12-07T01:10:23;4.70;1.00
6496;DHT22;3281;47.658;9.166;2022-12-07T01:12:50;4.70;1.00
6496;DHT22;3281;47.658;9.166;2022-12-07T01:15:17;4.80;1.00
6496;DHT22;3281;47.658;9.166;2022-12-07T01:17:45;4.80;1.00
6496;DHT22;3281;47.658;9.166;2022-12-07T01:20:12;4.80;1.00
6496;DHT22;3281;47.658;9.166;2022-12-07T01:22:42;4.80;1.00
6496;DHT22;3281;47.658;9.166;2022-12-07T01:25:10;4.80;1.00
6496;DHT22;3281;47.658;9.166;2022-12-07T01:27:37;4.80;1.00
6496;DHT22;3281;47.658;9.166;2022-12-07T01:30:06;4.90;1.00
6496;DHT22;3281;47.658;9.166;2022-12-07T01:32:33;4.90;1.00
6496;DHT22;3281;47.658;9.166;2022-12-07T01:35:01;4.90;1.00
6496;DHT22;3281;47.658;9.166;2022-12-07T01:37:28;4.90;1.00
6496;DHT22;3281;47.658;9.166;2022-12-07T01:39:54;4.80;1.00
6496;DHT22;3281;47.658;9.166;2022-12-07T01:42:21;4.90;1.00
6496;DHT22;3281;47.658;9.166;2022-12-07T01:47:51;4.90;1.00
6496;DHT22;3281;47.658;9.166;2022-12-07T01:50:20;5.00;1.00
6496;DHT22;3281;47.658;9.166;2022-12-07T01:52:49;5.00;1.00
6496;DHT22;3281;47.658;9.166;2022-12-07T01:55:17;4.90;1.00
6496;DHT22;3281;47.658;9.166;2022-12-07T01:57:49;5.00;1.00
6496;DHT22;3281;47.658;9.166;2022-12-07T02:00:17;4.90;1.00
6496;DHT22;3281;47.658;9.166;2022-12-07T02:02:47;4.80;1.00
6496;DHT22;3281;47.658;9.166;2022-12-07T02:05:15;4.90;1.00
6496;DHT22;3281;47.658;9.166;2022-12-07T02:07:46;4.80;1.00
6496;DHT22;3281;47.658;9.166;2022-12-07T02:10:15;4.80;1.00
6496;DHT22;3281;47.658;9.166;2022-12-07T02:12:42;4.80;1.00
6496;DHT22;3281;47.658;9.166;2022-12-07T02:15:10;4.80;1.00
6496;DHT22;3281;47.658;9.166;2022-12-07T02:17:45;4.70;1.00
6496;DHT22;3281;47.658;9.166;2022-12-07T02:20:22;4.60;1.00
6496;DHT22;3281;47.658;9.166;2022-12-07T02:29:13;4.50;1.00
6496;DHT22;3281;47.658;9.166;2022-12-07T02:31:46;4.50;1.00
6496;DHT22;3281;47.658;9.166;2022-12-07T02:34:20;4.60;1.00
6496;DHT22;3281;47.658;9.166;2022-12-07T02:36:52;4.60;1.00
6496;DHT22;3281;47.658;9.166;2022-12-07T02:39:25;4.60;1.00
6496;DHT22;3281;47.658;9.166;2022-12-07T02:41:59;4.70;1.00
6496;DHT22;3281;47.658;9.166;2022-12-07T02:44:30;4.70;1.00
6496;DHT22;3281;47.658;9.166;2022-12-07T02:47:01;4.60;1.00
6496;DHT22;3281;47.658;9.166;2022-12-07T02:49:30;4.70;1.00
6496;DHT22;3281;47.658;9.166;2022-12-07T02:51:57;4.70;1.00
6496;DHT22;3281;47.658;9.166;2022-12-07T02:54:24;4.70;1.00
6496;DHT22;3281;47.658;9.166;2022-12-07T02:56:56;4.80;1.00
6496;DHT22;3281;47.658;9.166;2022-12-07T02:59:35;4.80;1.00
6496;DHT22;3281;47.658;9.166;2022-12-07T03:02:12;4.90;1.00
6496;DHT22;3281;47.658;9.166;2022-12-07T03:04:49;5.00;1.00
6496;DHT22;3281;47.658;9.166;2022-12-07T03:07:25;5.00;1.00
6496;DHT22;3281;47.658;9.166;2022-12-07T03:10:00;5.00;1.00
6496;DHT22;3281;47.658;9.166;2022-12-07T03:12:32;5.00;1.00
6496;DHT22;3281;47.658;9.166;2022-12-07T03:15:08;5.00;1.00
6496;DHT22;3281;47.658;9.166;2022-12-07T03:17:38;5.00;1.00
6496;DHT22;3281;47.658;9.166;2022-12-07T03:20:09;5.00;1.00
6496;DHT22;3281;47.658;9.166;2022-12-07T03:22:38;4.90;1.00
6496;DHT22;3281;47.658;9.166;2022-12-07T03:25:10;4.80;1.00
6496;DHT22;3281;47.658;9.166;2022-12-07T03:27:41;4.90;1.00
6496;DHT22;3281;47.658;9.166;2022-12-07T03:30:14;4.80;1.00
6496;DHT22;3281;47.658;9.166;2022-12-07T03:32:45;4.90;1.00
6496;DHT22;3281;47.658;9.166;2022-12-07T03:35:18;4.90;1.00
6496;DHT22;3281;47.658;9.166;2022-12-07T03:37:49;4.90;1.00
6496;DHT22;3281;47.658;9.166;2022-12-07T03:40:21;5.00;1.00
6496;DHT22;3281;47.658;9.166;2022-12-07T03:42:50;5.10;1.00
6496;DHT22;3281;47.658;9.166;2022-12-07T03:45:22;5.00;1.00
6496;DHT22;3281;47.658;9.166;2022-12-07T03:47:54;5.00;1.00
6496;DHT22;3281;47.658;9.166;2022-12-07T03:50:29;5.00;1.00
6496;DHT22;3281;47.658;9.166;2022-12-07T03:53:02;5.00;1.00
6496;DHT22;3281;47.658;9.166;2022-12-07T03:55:31;5.10;1.00
6496;DHT22;3281;47.658;9.166;2022-12-07T03:58:05;5.10;1.00
6496;DHT22;3281;47.658;9.166;2022-12-07T04:00:34;5.10;1.00
6496;DHT22;3281;47.658;9.166;2022-12-07T04:03:00;5.20;1.00
6496;DHT22;3281;47.658;9.166;2022-12-07T04:05:28;5.20;1.00
6496;DHT22;3281;47.658;9.166;2022-12-07T04:07:55;5.10;1.00
6496;DHT22;3281;47.658;9.166;2022-12-07T04:10:22;5.10;1.00
6496;DHT22;3281;47.658;9.166;2022-12-07T04:12:49;5.10;1.00
6496;DHT22;3281;47.658;9.166;2022-12-07T04:15:15;4.90;1.00
6496;DHT22;3281;47.658;9.166;2022-12-07T04:17:44;5.10;1.00
6496;DHT22;3281;47.658;9.166;2022-12-07T04:20:11;4.90;1.00
6496;DHT22;3281;47.658;9.166;2022-12-07T04:22:38;4.90;1.00
6496;DHT22;3281;47.658;9.166;2022-12-07T04:25:06;4.90;1.00
6496;DHT22;3281;47.658;9.166;2022-12-07T04:27:32;4.90;1.00
6496;DHT22;3281;47.658;9.166;2022-12-07T04:29:59;4.90;1.00
6496;DHT22;3281;47.658;9.166;2022-12-07T04:32:26;4.90;1.00
6496;DHT22;3281;47.658;9.166;2022-12-07T04:34:54;4.90;1.00
6496;DHT22;3281;47.658;9.166;2022-12-07T04:37:21;4.90;1.00
6496;DHT22;3281;47.658;9.166;2022-12-07T04:39:48;5.00;1.00
6496;DHT22;3281;47.658;9.166;2022-12-07T04:42:15;5.00;1.00
6496;DHT22;3281;47.658;9.166;2022-12-07T04:44:41;4.90;1.00
6496;DHT22;3281;47.658;9.166;2022-12-07T04:47:09;5.00;1.00
6496;DHT22;3281;47.658;9.166;2022-12-07T04:49:35;4.90;1.00
6496;DHT22;3281;47.658;9.166;2022-12-07T04:52:04;4.90;1.00
6496;DHT22;3281;47.658;9.166;2022-12-07T04:54:31;4.90;1.00
6496;DHT22;3281;47.658;9.166;2022-12-07T04:56:57;5.00;1.00
6496;DHT22;3281;47.658;9.166;2022-12-07T04:59:24;4.90;1.00
6496;DHT22;3281;47.658;9.166;2022-12-07T05:01:51;5.00;1.00
6496;DHT22;3281;47.658;9.166;2022-12-07T05:04:18;5.00;1.00
6496;DHT22;3281;47.658;9.166;2022-12-07T05:06:44;4.80;1.00
6496;DHT22;3281;47.658;9.166;2022-12-07T05:09:13;4.90;1.00
6496;DHT22;3281;47.658;9.166;2022-12-07T05:11:39;4.90;1.00
6496;DHT22;3281;47.658;9.166;2022-12-07T05:14:09;4.90;1.00
6496;DHT22;3281;47.658;9.166;2022-12-07T05:16:37;5.00;1.00
6496;DHT22;3281;47.658;9.166;2022-12-07T05:19:04;4.90;1.00
6496;DHT22;3281;47.658;9.166;2022-12-07T05:21:31;4.90;1.00
6496;DHT22;3281;47.658;9.166;2022-12-07T05:23:58;5.00;1.00
6496;DHT22;3281;47.658;9.166;2022-12-07T05:26:26;4.80;1.00
6496;DHT22;3281;47.658;9.166;2022-12-07T05:28:54;4.70;1.00
6496;DHT22;3281;47.658;9.166;2022-12-07T05:31:21;4.80;1.00
6496;DHT22;3281;47.658;9.166;2022-12-07T05:33:49;4.80;1.00
6496;DHT22;3281;47.658;9.166;2022-12-07T05:36:16;4.80;1.00
6496;DHT22;3281;47.658;9.166;2022-12-07T05:38:43;4.90;1.00
6496;DHT22;3281;47.658;9.166;2022-12-07T05:41:13;4.80;1.00
6496;DHT22;3281;47.658;9.166;2022-12-07T05:43:55;4.70;1.00
6496;DHT22;3281;47.658;9.166;2022-12-07T05:46:22;4.70;1.00
6496;DHT22;3281;47.658;9.166;2022-12-07T05:48:49;4.60;1.00
6496;DHT22;3281;47.658;9.166;2022-12-07T05:51:16;4.60;1.00
6496;DHT22;3281;47.658;9.166;2022-12-07T05:53:42;4.70;1.00
6496;DHT22;3281;47.658;9.166;2022-12-07T05:56:09;4.70;1.00
6496;DHT22;3281;47.658;9.166;2022-12-07T05:58:36;4.70;1.00
6496;DHT22;3281;47.658;9.166;2022-12-07T06:01:21;4.70;1.00
6496;DHT22;3281;47.658;9.166;2022-12-07T06:03:47;4.70;1.00
6496;DHT22;3281;47.658;9.166;2022-12-07T06:06:14;4.70;1.00
6496;DHT22;3281;47.658;9.166;2022-12-07T06:08:41;4.90;1.00
6496;DHT22;3281;47.658;9.166;2022-12-07T06:11:08;4.80;1.00
6496;DHT22;3281;47.658;9.166;2022-12-07T06:13:52;4.80;1.00
6496;DHT22;3281;47.658;9.166;2022-12-07T06:16:20;4.80;1.00
6496;DHT22;3281;47.658;9.166;2022-12-07T06:18:47;4.80;1.00
6496;DHT22;3281;47.658;9.166;2022-12-07T06:21:14;4.90;1.00
6496;DHT22;3281;47.658;9.166;2022-12-07T06:23:40;4.80;1.00
6496;DHT22;3281;47.658;9.166;2022-12-07T06:26:07;4.80;1.00
6496;DHT22;3281;47.658;9.166;2022-12-07T06:28:34;4.90;1.00
6496;DHT22;3281;47.658;9.166;2022-12-07T06:31:01;4.80;1.00
6496;DHT22;3281;47.658;9.166;2022-12-07T06:33:30;4.80;1.00
6496;DHT22;3281;47.658;9.166;2022-12-07T06:35:56;4.70;1.00
6496;DHT22;3281;47.658;9.166;2022-12-07T06:38:23;4.80;1.00
6496;DHT22;3281;47.658;9.166;2022-12-07T06:40:50;4.90;1.00
6496;DHT22;3281;47.658;9.166;2022-12-07T06:43:17;4.90;1.00
6496;DHT22;3281;47.658;9.166;2022-12-07T06:45:43;4.90;1.00
6496;DHT22;3281;47.658;9.166;2022-12-07T06:48:10;4.80;1.00
6496;DHT22;3281;47.658;9.166;2022-12-07T06:50:38;4.80;1.00
6496;DHT22;3281;47.658;9.166;2022-12-07T06:53:05;4.90;1.00
6496;DHT22;3281;47.658;9.166;2022-12-07T06:55:32;5.00;1.00
6496;DHT22;3281;47.658;9.166;2022-12-07T06:57:58;5.00;1.00
6496;DHT22;3281;47.658;9.166;2022-12-07T07:00:27;5.00;1.00
6496;DHT22;3281;47.658;9.166;2022-12-07T07:02:54;5.00;1.00
6496;DHT22;3281;47.658;9.166;2022-12-07T07:05:20;4.90;1.00
6496;DHT22;3281;47.658;9.166;2022-12-07T07:07:49;4.90;1.00
6496;DHT22;3281;47.658;9.166;2022-12-07T07:10:17;4.90;1.00
6496;DHT22;3281;47.658;9.166;2022-12-07T07:12:44;5.00;1.00
6496;DHT22;3281;47.658;9.166;2022-12-07T07:15:10;5.00;1.00
6496;DHT22;3281;47.658;9.166;2022-12-07T07:17:37;5.00;1.00
6496;DHT22;3281;47.658;9.166;2022-12-07T07:20:05;5.10;1.00
6496;DHT22;3281;47.658;9.166;2022-12-07T07:22:32;5.00;1.00
6496;DHT22;3281;47.658;9.166;2022-12-07T07:25:00;4.90;1.00
6496;DHT22;3281;47.658;9.166;2022-12-07T07:27:27;5.00;1.00
6496;DHT22;3281;47.658;9.166;2022-12-07T07:29:54;4.90;1.00
6496;DHT22;3281;47.658;9.166;2022-12-07T07:32:21;4.90;1.00
6496;DHT22;3281;47.658;9.166;2022-12-07T07:34:47;5.00;1.00
6496;DHT22;3281;47.658;9.166;2022-12-07T07:37:14;5.00;1.00
6496;DHT22;3281;47.658;9.166;2022-12-07T07:39:41;5.10;1.00
6496;DHT22;3281;47.658;9.166;2022-12-07T07:42:09;5.10;1.00
6496;DHT22;3281;47.658;9.166;2022-12-07T07:44:36;5.10;1.00
6496;DHT22;3281;47.658;9.166;2022-12-07T07:47:03;5.10;1.00
6496;DHT22;3281;47.658;9.166;2022-12-07T07:49:29;5.10;1.00
6496;DHT22;3281;47.658;9.166;2022-12-07T07:51:56;4.90;1.00
6496;DHT22;3281;47.658;9.166;2022-12-07T07:54:23;5.00;1.00
6496;DHT22;3281;47.658;9.166;2022-12-07T07:56:50;5.00;1.00
6496;DHT22;3281;47.658;9.166;2022-12-07T07:59:18;5.00;1.00
6496;DHT22;3281;47.658;9.166;2022-12-07T08:01:44;5.10;1.00
6496;DHT22;3281;47.658;9.166;2022-12-07T08:04:11;5.00;1.00
6496;DHT22;3281;47.658;9.166;2022-12-07T08:06:38;5.10;1.00
6496;DHT22;3281;47.658;9.166;2022-12-07T08:09:05;5.00;1.00
6496;DHT22;3281;47.658;9.166;2022-12-07T08:11:32;5.10;1.00
6496;DHT22;3281;47.658;9.166;2022-12-07T08:13:58;4.90;1.00
6496;DHT22;3281;47.658;9.166;2022-12-07T08:16:26;5.00;1.00
6496;DHT22;3281;47.658;9.166;2022-12-07T08:18:53;5.10;1.00
6496;DHT22;3281;47.658;9.166;2022-12-07T08:21:20;5.00;1.00
6496;DHT22;3281;47.658;9.166;2022-12-07T08:23:47;5.00;1.00
6496;DHT22;3281;47.658;9.166;2022-12-07T08:26:15;5.00;1.00
6496;DHT22;3281;47.658;9.166;2022-12-07T08:28:42;5.10;1.00
6496;DHT22;3281;47.658;9.166;2022-12-07T08:31:12;5.10;1.00
6496;DHT22;3281;47.658;9.166;2022-12-07T08:33:41;5.00;1.00
6496;DHT22;3281;47.658;9.166;2022-12-07T08:36:09;4.90;1.00
6496;DHT22;3281;47.658;9.166;2022-12-07T08:38:38;5.00;1.00
6496;DHT22;3281;47.658;9.166;2022-12-07T08:41:06;5.10;1.00
6496;DHT22;3281;47.658;9.166;2022-12-07T08:43:34;5.10;1.00
6496;DHT22;3281;47.658;9.166;2022-12-07T08:46:08;5.20;1.00
6496;DHT22;3281;47.658;9.166;2022-12-07T08:48:38;5.20;1.00
6496;DHT22;3281;47.658;9.166;2022-12-07T08:51:08;5.20;1.00
6496;DHT22;3281;47.658;9.166;2022-12-07T08:53:35;5.10;1.00
6496;DHT22;3281;47.658;9.166;2022-12-07T08:56:04;5.10;1.00
6496;DHT22;3281;47.658;9.166;2022-12-07T08:58:31;5.20;1.00
6496;DHT22;3281;47.658;9.166;2022-12-07T09:00:58;5.20;1.00
6496;DHT22;3281;47.658;9.166;2022-12-07T09:03:25;5.20;1.00
6496;DHT22;3281;47.658;9.166;2022-12-07T09:05:53;5.30;1.00
6496;DHT22;3281;47.658;9.166;2022-12-07T09:08:21;5.30;1.00
6496;DHT22;3281;47.658;9.166;2022-12-07T09:10:48;5.40;1.00
6496;DHT22;3281;47.658;9.166;2022-12-07T09:13:15;5.40;1.00
6496;DHT22;3281;47.658;9.166;2022-12-07T09:15:42;5.40;1.00
6496;DHT22;3281;47.658;9.166;2022-12-07T09:18:09;5.60;1.00
6496;DHT22;3281;47.658;9.166;2022-12-07T09:20:35;5.60;1.00
6496;DHT22;3281;47.658;9.166;2022-12-07T09:23:02;5.60;1.00
6496;DHT22;3281;47.658;9.166;2022-12-07T09:25:32;5.60;1.00
6496;DHT22;3281;47.658;9.166;2022-12-07T09:28:00;5.60;1.00
6496;DHT22;3281;47.658;9.166;2022-12-07T09:30:27;5.60;1.00
6496;DHT22;3281;47.658;9.166;2022-12-07T09:32:54;5.70;1.10
6496;DHT22;3281;47.658;9.166;2022-12-07T09:35:22;5.60;1.00
6496;DHT22;3281;47.658;9.166;2022-12-07T09:37:49;5.70;2.30
6496;DHT22;3281;47.658;9.166;2022-12-07T09:40:17;5.60;1.00
6496;DHT22;3281;47.658;9.166;2022-12-07T09:42:49;5.70;2.30
6496;DHT22;3281;47.658;9.166;2022-12-07T09:45:21;5.70;2.20
6496;DHT22;3281;47.658;9.166;2022-12-07T09:47:48;5.80;1.00
6496;DHT22;3281;47.658;9.166;2022-12-07T09:50:17;5.80;2.30
6496;DHT22;3281;47.658;9.166;2022-12-07T09:52:45;5.70;2.30
6496;DHT22;3281;47.658;9.166;2022-12-07T09:55:16;5.70;3.10
6496;DHT22;3281;47.658;9.166;2022-12-07T09:57:43;5.70;4.40
6496;DHT22;3281;47.658;9.166;2022-12-07T10:00:14;5.70;2.60
6496;DHT22;3281;47.658;9.166;2022-12-07T10:02:42;5.70;3.90
6496;DHT22;3281;47.658;9.166;2022-12-07T10:05:13;5.80;2.90
6496;DHT22;3281;47.658;9.166;2022-12-07T10:07:41;5.80;4.50
6496;DHT22;3281;47.658;9.166;2022-12-07T10:10:15;5.80;6.90
6496;DHT22;3281;47.658;9.166;2022-12-07T10:12:55;5.80;4.00
6496;DHT22;3281;47.658;9.166;2022-12-07T10:15:36;6.00;4.90
6496;DHT22;3281;47.658;9.166;2022-12-07T10:18:17;6.10;4.40
6496;DHT22;3281;47.658;9.166;2022-12-07T10:20:45;6.10;7.00
6496;DHT22;3281;47.658;9.166;2022-12-07T10:23:15;6.10;4.10
6496;DHT22;3281;47.658;9.166;2022-12-07T10:25:42;6.00;4.70
6496;DHT22;3281;47.658;9.166;2022-12-07T10:28:13;6.00;5.20
6496;DHT22;3281;47.658;9.166;2022-12-07T10:30:49;6.00;5.20
6496;DHT22;3281;47.658;9.166;2022-12-07T10:33:32;5.90;4.40
6496;DHT22;3281;47.658;9.166;2022-12-07T10:36:00;6.10;3.60
6496;DHT22;3281;47.658;9.166;2022-12-07T10:38:27;6.00;4.60
6496;DHT22;3281;47.658;9.166;2022-12-07T10:41:06;5.90;3.20
6496;DHT22;3281;47.658;9.166;2022-12-07T10:43:33;6.00;4.30
6496;DHT22;3281;47.658;9.166;2022-12-07T10:46:35;5.90;3.50
6496;DHT22;3281;47.658;9.166;2022-12-07T10:51:59;5.90;3.30
6496;DHT22;3281;47.658;9.166;2022-12-07T10:54:34;5.90;3.90
6496;DHT22;3281;47.658;9.166;2022-12-07T10:57:19;5.90;2.70
6496;DHT22;3281;47.658;9.166;2022-12-07T10:59:57;5.80;1.00
6496;DHT22;3281;47.658;9.166;2022-12-07T11:02:45;5.80;3.50
6496;DHT22;3281;47.658;9.166;2022-12-07T11:05:24;5.90;2.90
6496;DHT22;3281;47.658;9.166;2022-12-07T11:08:00;5.80;2.20
6496;DHT22;3281;47.658;9.166;2022-12-07T11:10:36;5.90;2.40
6496;DHT22;3281;47.658;9.166;2022-12-07T11:13:20;5.90;2.40
6496;DHT22;3281;47.658;9.166;2022-12-07T11:16:00;5.90;1.00
6496;DHT22;3281;47.658;9.166;2022-12-07T11:18:32;5.90;4.70
6496;DHT22;3281;47.658;9.166;2022-12-07T11:21:07;5.90;5.00
6496;DHT22;3281;47.658;9.166;2022-12-07T11:23:48;5.90;2.00
6496;DHT22;3281;47.658;9.166;2022-12-07T11:26:25;5.90;2.20
6496;DHT22;3281;47.658;9.166;2022-12-07T11:29:08;5.80;2.70
6496;DHT22;3281;47.658;9.166;2022-12-07T11:31:50;5.80;1.10
6496;DHT22;3281;47.658;9.166;2022-12-07T11:34:29;5.70;2.90
6496;DHT22;3281;47.658;9.166;2022-12-07T11:37:02;5.70;4.00
6496;DHT22;3281;47.658;9.166;2022-12-07T11:39:33;5.60;4.20
6496;DHT22;3281;47.658;9.166;2022-12-07T11:42:05;5.60;1.80
6496;DHT22;3281;47.658;9.166;2022-12-07T11:44:36;5.70;6.60
6496;DHT22;3281;47.658;9.166;2022-12-07T11:47:12;5.60;5.90
6496;DHT22;3281;47.658;9.166;2022-12-07T11:49:47;5.70;5.80
6496;DHT22;3281;47.658;9.166;2022-12-07T11:52:24;5.60;3.30
6496;DHT22;3281;47.658;9.166;2022-12-07T11:54:53;5.60;4.40
6496;DHT22;3281;47.658;9.166;2022-12-07T11:57:25;5.60;6.60
6496;DHT22;3281;47.658;9.166;2022-12-07T11:59:58;5.80;6.80
6496;DHT22;3281;47.658;9.166;2022-12-07T12:02:31;5.80;6.80
6496;DHT22;3281;47.658;9.166;2022-12-07T12:05:07;5.80;4.20
6496;DHT22;3281;47.658;9.166;2022-12-07T12:07:39;6.00;4.40
6496;DHT22;3281;47.658;9.166;2022-12-07T12:10:17;5.90;1.00
6496;DHT22;3281;47.658;9.166;2022-12-07T12:13:05;6.00;2.40
6496;DHT22;3281;47.658;9.166;2022-12-07T12:15:51;6.10;4.40
6496;DHT22;3281;47.658;9.166;2022-12-07T12:18:41;6.10;1.20
6496;DHT22;3281;47.658;9.166;2022-12-07T12:21:17;5.90;1.00
6496;DHT22;3281;47.658;9.166;2022-12-07T12:23:47;6.00;1.00
6496;DHT22;3281;47.658;9.166;2022-12-07T12:26:18;6.10;1.00
6496;DHT22;3281;47.658;9.166;2022-12-07T12:28:52;6.20;1.00
6496;DHT22;3281;47.658;9.166;2022-12-07T12:31:36;6.10;1.00
6496;DHT22;3281;47.658;9.166;2022-12-07T12:34:31;6.10;1.00
6496;DHT22;3281;47.658;9.166;2022-12-07T12:37:00;6.10;1.00
6496;DHT22;3281;47.658;9.166;2022-12-07T12:39:27;6.20;1.00
6496;DHT22;3281;47.658;9.166;2022-12-07T12:41:58;6.30;2.20
6496;DHT22;3281;47.658;9.166;2022-12-07T12:45:11;6.30;1.00
6496;DHT22;3281;47.658;9.166;2022-12-07T12:47:55;6.20;1.00
6496;DHT22;3281;47.658;9.166;2022-12-07T12:50:28;6.40;1.00
6496;DHT22;3281;47.658;9.166;2022-12-07T12:56:04;6.50;1.00
6496;DHT22;3281;47.658;9.166;2022-12-07T12:58:39;6.40;1.00
6496;DHT22;3281;47.658;9.166;2022-12-07T13:04:21;6.30;1.00
6496;DHT22;3281;47.658;9.166;2022-12-07T13:06:49;6.40;1.00
6496;DHT22;3281;47.658;9.166;2022-12-07T13:09:21;6.30;1.00
6496;DHT22;3281;47.658;9.166;2022-12-07T13:11:54;6.50;1.00
6496;DHT22;3281;47.658;9.166;2022-12-07T13:14:43;6.40;1.00
6496;DHT22;3281;47.658;9.166;2022-12-07T13:17:11;6.40;1.00
6496;DHT22;3281;47.658;9.166;2022-12-07T13:19:59;6.50;1.00
6496;DHT22;3281;47.658;9.166;2022-12-07T13:22:42;6.50;1.00
6496;DHT22;3281;47.658;9.166;2022-12-07T13:25:12;6.50;1.00
6496;DHT22;3281;47.658;9.166;2022-12-07T13:27:52;6.50;1.00
6496;DHT22;3281;47.658;9.166;2022-12-07T13:30:22;6.50;1.00
6496;DHT22;3281;47.658;9.166;2022-12-07T13:32:52;6.40;1.00
6496;DHT22;3281;47.658;9.166;2022-12-07T13:35:30;6.20;1.00
6496;DHT22;3281;47.658;9.166;2022-12-07T13:37:57;6.30;1.00
6496;DHT22;3281;47.658;9.166;2022-12-07T13:40:25;6.30;1.00
6496;DHT22;3281;47.658;9.166;2022-12-07T13:43:00;6.50;1.00
6496;DHT22;3281;47.658;9.166;2022-12-07T13:45:29;6.40;1.00
6496;DHT22;3281;47.658;9.166;2022-12-07T13:48:16;6.40;1.00
6496;DHT22;3281;47.658;9.166;2022-12-07T13:50:52;6.50;1.00
6496;DHT22;3281;47.658;9.166;2022-12-07T13:53:19;6.50;1.00
6496;DHT22;3281;47.658;9.166;2022-12-07T13:55:48;6.50;1.00
6496;DHT22;3281;47.658;9.166;2022-12-07T13:58:15;6.50;1.00
6496;DHT22;3281;47.658;9.166;2022-12-07T14:00:42;6.60;1.00
6496;DHT22;3281;47.658;9.166;2022-12-07T14:03:31;6.50;1.00
6496;DHT22;3281;47.658;9.166;2022-12-07T14:06:23;6.50;1.00
6496;DHT22;3281;47.658;9.166;2022-12-07T14:09:06;6.50;1.00
6496;DHT22;3281;47.658;9.166;2022-12-07T14:11:35;6.50;1.00
6496;DHT22;3281;47.658;9.166;2022-12-07T14:14:02;6.60;1.00
6496;DHT22;3281;47.658;9.166;2022-12-07T14:16:32;6.40;1.00
6496;DHT22;3281;47.658;9.166;2022-12-07T14:19:01;6.30;1.00
6496;DHT22;3281;47.658;9.166;2022-12-07T14:21:30;6.30;1.00
6496;DHT22;3281;47.658;9.166;2022-12-07T14:24:09;6.30;1.00
6496;DHT22;3281;47.658;9.166;2022-12-07T14:26:39;6.40;1.00
6496;DHT22;3281;47.658;9.166;2022-12-07T14:29:20;6.40;1.00
6496;DHT22;3281;47.658;9.166;2022-12-07T14:31:47;6.30;1.00
6496;DHT22;3281;47.658;9.166;2022-12-07T14:34:14;6.30;1.00
6496;DHT22;3281;47.658;9.166;2022-12-07T14:36:41;6.30;1.00
6496;DHT22;3281;47.658;9.166;2022-12-07T14:39:07;6.30;1.00
6496;DHT22;3281;47.658;9.166;2022-12-07T14:41:34;6.30;1.00
6496;DHT22;3281;47.658;9.166;2022-12-07T14:44:22;6.30;1.00
6496;DHT22;3281;47.658;9.166;2022-12-07T14:46:50;6.30;1.00
6496;DHT22;3281;47.658;9.166;2022-12-07T14:49:17;6.30;1.00
6496;DHT22;3281;47.658;9.166;2022-12-07T14:51:46;6.40;1.00
6496;DHT22;3281;47.658;9.166;2022-12-07T14:54:16;6.40;1.00
6496;DHT22;3281;47.658;9.166;2022-12-07T14:56:44;6.30;1.00
6496;DHT22;3281;47.658;9.166;2022-12-07T14:59:14;6.30;1.00
6496;DHT22;3281;47.658;9.166;2022-12-07T15:01:42;6.20;1.00
6496;DHT22;3281;47.658;9.166;2022-12-07T15:04:09;6.20;1.00
6496;DHT22;3281;47.658;9.166;2022-12-07T15:06:36;6.20;1.00
6496;DHT22;3281;47.658;9.166;2022-12-07T15:09:04;6.20;1.00
6496;DHT22;3281;47.658;9.166;2022-12-07T15:11:31;6.10;1.00
6496;DHT22;3281;47.658;9.166;2022-12-07T15:13:57;6.00;1.00
6496;DHT22;3281;47.658;9.166;2022-12-07T15:16:39;6.00;1.00
6496;DHT22;3281;47.658;9.166;2022-12-07T15:19:11;6.00;1.00
6496;DHT22;3281;47.658;9.166;2022-12-07T15:21:38;6.00;1.00
6496;DHT22;3281;47.658;9.166;2022-12-07T15:24:05;5.90;1.00
6496;DHT22;3281;47.658;9.166;2022-12-07T15:26:32;5.90;1.00
6496;DHT22;3281;47.658;9.166;2022-12-07T15:28:59;5.90;1.00
6496;DHT22;3281;47.658;9.166;2022-12-07T15:31:26;5.90;1.00
6496;DHT22;3281;47.658;9.166;2022-12-07T15:33:52;5.80;1.00
6496;DHT22;3281;47.658;9.166;2022-12-07T15:36:22;5.80;1.00
6496;DHT22;3281;47.658;9.166;2022-12-07T15:38:50;5.90;1.00
6496;DHT22;3281;47.658;9.166;2022-12-07T15:41:17;5.80;1.00
6496;DHT22;3281;47.658;9.166;2022-12-07T15:43:44;5.70;1.00
6496;DHT22;3281;47.658;9.166;2022-12-07T15:46:32;5.70;1.00
6496;DHT22;3281;47.658;9.166;2022-12-07T15:49:00;5.70;1.00
6496;DHT22;3281;47.658;9.166;2022-12-07T15:51:28;5.70;1.00
6496;DHT22;3281;47.658;9.166;2022-12-07T15:53:55;5.70;1.00
6496;DHT22;3281;47.658;9.166;2022-12-07T15:56:23;5.70;1.00
6496;DHT22;3281;47.658;9.166;2022-12-07T15:58:50;5.70;1.00
6496;DHT22;3281;47.658;9.166;2022-12-07T16:01:17;5.60;1.00
6496;DHT22;3281;47.658;9.166;2022-12-07T16:03:45;5.70;1.00
6496;DHT22;3281;47.658;9.166;2022-12-07T16:06:14;5.60;1.00
6496;DHT22;3281;47.658;9.166;2022-12-07T16:08:43;5.60;1.00
6496;DHT22;3281;47.658;9.166;2022-12-07T16:11:11;5.50;1.00
6496;DHT22;3281;47.658;9.166;2022-12-07T16:13:37;5.40;1.00
6496;DHT22;3281;47.658;9.166;2022-12-07T16:16:06;5.40;1.00
6496;DHT22;3281;47.658;9.166;2022-12-07T16:18:34;5.40;1.00
6496;DHT22;3281;47.658;9.166;2022-12-07T16:21:00;5.40;1.00
6496;DHT22;3281;47.658;9.166;2022-12-07T16:23:27;5.40;1.00
6496;DHT22;3281;47.658;9.166;2022-12-07T16:26:03;5.50;1.00
6496;DHT22;3281;47.658;9.166;2022-12-07T16:28:30;5.50;1.00
6496;DHT22;3281;47.658;9.166;2022-12-07T16:31:01;5.50;1.00
6496;DHT22;3281;47.658;9.166;2022-12-07T16:33:27;5.60;1.00
6496;DHT22;3281;47.658;9.166;2022-12-07T16:35:54;5.50;1.00
6496;DHT22;3281;47.658;9.166;2022-12-07T16:38:21;5.40;1.00
6496;DHT22;3281;47.658;9.166;2022-12-07T16:40:48;5.40;1.00
6496;DHT22;3281;47.658;9.166;2022-12-07T16:43:16;5.30;1.00
6496;DHT22;3281;47.658;9.166;2022-12-07T16:45:42;5.30;1.00
6496;DHT22;3281;47.658;9.166;2022-12-07T16:48:09;5.30;1.00
6496;DHT22;3281;47.658;9.166;2022-12-07T16:50:38;5.20;1.00
6496;DHT22;3281;47.658;9.166;2022-12-07T16:53:06;5.20;1.00
6496;DHT22;3281;47.658;9.166;2022-12-07T16:55:35;5.20;1.00
6496;DHT22;3281;47.658;9.166;2022-12-07T16:58:02;5.20;1.00
6496;DHT22;3281;47.658;9.166;2022-12-07T17:00:30;5.20;1.00
6496;DHT22;3281;47.658;9.166;2022-12-07T17:02:57;5.20;1.00
6496;DHT22;3281;47.658;9.166;2022-12-07T17:05:24;5.10;1.00
6496;DHT22;3281;47.658;9.166;2022-12-07T17:07:52;5.10;1.00
6496;DHT22;3281;47.658;9.166;2022-12-07T17:10:19;5.20;1.00
6496;DHT22;3281;47.658;9.166;2022-12-07T17:12:46;5.20;1.00